sensor_id;sensor_type;location;lat;lon;timestamp;P1;durP1;ratioP1;P2;durP2;ratioP2
13868;SDS011;7004;48.206;16.402;2023-09-18T00:00:28;12.37;;;11.07;;
13868;SDS011;7004;48.206;16.402;2023-09-18T00:02:55;12.07;;;10.87;;
13868;SDS011;7004;48.206;16.402;2023-09-18T00:05:21;10.73;;;9.63;;
13868;SDS011;7004;48.206;16.402;2023-09-18T00:07:48;13.53;;;11.13;;
13868;SDS011;7004;48.206;16.402;2023-09-18T00:10:14;12.43;;;10.53;;
13868;SDS011;7004;48.206;16.402;2023-09-18T00:12:40;12.00;;;10.30;;
13868;SDS011;7004;48.206;16.402;2023-09-18T00:15:06;10.70;;;9.63;;
13868;SDS011;7004;48.206;16.402;2023-09-18T00:17:36;12.43;;;10.40;;
13868;SDS011;7004;48.206;16.402;2023-09-18T00:20:02;12.17;;;10.97;;
13868;SDS011;7004;48.206;16.402;2023-09-18T00:22:32;12.10;;;10.57;;
13868;SDS011;7004;48.206;16.402;2023-09-18T00:24:58;11.67;;;10.47;;
13868;SDS011;7004;48.206;16.402;2023-09-18T00:27:24;11.60;;;10.40;;
13868;SDS011;7004;48.206;16.402;2023-09-18T00:29:51;11.73;;;10.53;;
13868;SDS011;7004;48.206;16.402;2023-09-18T00:32:17;13.50;;;10.70;;
13868;SDS011;7004;48.206;16.402;2023-09-18T00:34:43;12.13;;;10.47;;
13868;SDS011;7004;48.206;16.402;2023-09-18T00:37:09;11.87;;;10.70;;
13868;SDS011;7004;48.206;16.402;2023-09-18T00:39:37;12.87;;;10.77;;
13868;SDS011;7004;48.206;16.402;2023-09-18T00:42:03;12.13;;;10.93;;
13868;SDS011;7004;48.206;16.402;2023-09-18T00:44:30;11.90;;;10.70;;
13868;SDS011;7004;48.206;16.402;2023-09-18T00:46:56;12.77;;;11.47;;
13868;SDS011;7004;48.206;16.402;2023-09-18T00:49:22;12.57;;;11.20;;
13868;SDS011;7004;48.206;16.402;2023-09-18T00:51:49;13.87;;;11.63;;
13868;SDS011;7004;48.206;16.402;2023-09-18T00:54:16;12.73;;;10.63;;
13868;SDS011;7004;48.206;16.402;2023-09-18T00:56:45;12.40;;;11.20;;
13868;SDS011;7004;48.206;16.402;2023-09-18T00:59:13;12.97;;;11.67;;
13868;SDS011;7004;48.206;16.402;2023-09-18T01:01:43;12.57;;;11.27;;
13868;SDS011;7004;48.206;16.402;2023-09-18T01:04:10;13.43;;;11.53;;
13868;SDS011;7004;48.206;16.402;2023-09-18T01:06:38;12.20;;;11.00;;
13868;SDS011;7004;48.206;16.402;2023-09-18T01:09:04;12.87;;;11.57;;
13868;SDS011;7004;48.206;16.402;2023-09-18T01:11:53;14.40;;;11.73;;
13868;SDS011;7004;48.206;16.402;2023-09-18T01:17:10;12.07;;;10.80;;
13868;SDS011;7004;48.206;16.402;2023-09-18T01:19:43;13.20;;;11.63;;
13868;SDS011;7004;48.206;16.402;2023-09-18T01:22:13;13.70;;;12.30;;
13868;SDS011;7004;48.206;16.402;2023-09-18T01:24:45;13.43;;;12.03;;
13868;SDS011;7004;48.206;16.402;2023-09-18T01:27:16;13.13;;;11.77;;
13868;SDS011;7004;48.206;16.402;2023-09-18T01:29:44;13.13;;;11.77;;
13868;SDS011;7004;48.206;16.402;2023-09-18T01:32:14;13.70;;;12.30;;
13868;SDS011;7004;48.206;16.402;2023-09-18T01:34:42;13.40;;;12.00;;
13868;SDS011;7004;48.206;16.402;2023-09-18T01:37:19;13.37;;;11.77;;
13868;SDS011;7004;48.206;16.402;2023-09-18T01:39:51;13.50;;;11.57;;
13868;SDS011;7004;48.206;16.402;2023-09-18T01:42:18;13.37;;;12.03;;
13868;SDS011;7004;48.206;16.402;2023-09-18T01:44:46;12.47;;;11.27;;
13868;SDS011;7004;48.206;16.402;2023-09-18T01:47:16;12.83;;;11.53;;
13868;SDS011;7004;48.206;16.402;2023-09-18T01:49:44;12.07;;;10.83;;
13868;SDS011;7004;48.206;16.402;2023-09-18T01:52:11;12.43;;;11.17;;
13868;SDS011;7004;48.206;16.402;2023-09-18T01:54:38;14.30;;;11.33;;
13868;SDS011;7004;48.206;16.402;2023-09-18T01:57:04;13.83;;;12.33;;
13868;SDS011;7004;48.206;16.402;2023-09-18T01:59:32;14.03;;;11.90;;
13868;SDS011;7004;48.206;16.402;2023-09-18T02:01:59;15.23;;;11.47;;
13868;SDS011;7004;48.206;16.402;2023-09-18T02:04:26;14.60;;;11.67;;
13868;SDS011;7004;48.206;16.402;2023-09-18T02:06:52;16.10;;;12.43;;
13868;SDS011;7004;48.206;16.402;2023-09-18T02:09:18;12.40;;;11.10;;
13868;SDS011;7004;48.206;16.402;2023-09-18T02:11:45;14.43;;;12.13;;
13868;SDS011;7004;48.206;16.402;2023-09-18T02:14:13;14.23;;;12.33;;
13868;SDS011;7004;48.206;16.402;2023-09-18T02:16:41;13.00;;;11.60;;
13868;SDS011;7004;48.206;16.402;2023-09-18T02:19:12;14.07;;;12.03;;
13868;SDS011;7004;48.206;16.402;2023-09-18T02:21:39;13.80;;;12.40;;
13868;SDS011;7004;48.206;16.402;2023-09-18T02:24:06;13.33;;;11.93;;
13868;SDS011;7004;48.206;16.402;2023-09-18T02:26:32;13.53;;;12.23;;
13868;SDS011;7004;48.206;16.402;2023-09-18T02:29:01;13.73;;;12.17;;
13868;SDS011;7004;48.206;16.402;2023-09-18T02:31:31;14.10;;;12.53;;
13868;SDS011;7004;48.206;16.402;2023-09-18T02:33:57;13.67;;;12.27;;
13868;SDS011;7004;48.206;16.402;2023-09-18T02:36:23;14.10;;;12.60;;
13868;SDS011;7004;48.206;16.402;2023-09-18T02:38:49;14.03;;;12.60;;
13868;SDS011;7004;48.206;16.402;2023-09-18T02:41:15;14.37;;;12.97;;
13868;SDS011;7004;48.206;16.402;2023-09-18T02:43:41;13.83;;;12.43;;
13868;SDS011;7004;48.206;16.402;2023-09-18T02:46:08;13.80;;;12.37;;
13868;SDS011;7004;48.206;16.402;2023-09-18T02:48:34;13.67;;;12.17;;
13868;SDS011;7004;48.206;16.402;2023-09-18T02:51:00;13.67;;;12.30;;
13868;SDS011;7004;48.206;16.402;2023-09-18T02:53:27;14.93;;;11.47;;
13868;SDS011;7004;48.206;16.402;2023-09-18T02:55:55;13.40;;;12.10;;
13868;SDS011;7004;48.206;16.402;2023-09-18T02:58:22;16.60;;;12.60;;
13868;SDS011;7004;48.206;16.402;2023-09-18T03:00:51;13.77;;;12.03;;
13868;SDS011;7004;48.206;16.402;2023-09-18T03:03:22;16.60;;;12.53;;
13868;SDS011;7004;48.206;16.402;2023-09-18T03:05:48;14.53;;;13.03;;
13868;SDS011;7004;48.206;16.402;2023-09-18T03:08:14;13.70;;;12.27;;
13868;SDS011;7004;48.206;16.402;2023-09-18T03:10:42;17.17;;;12.77;;
13868;SDS011;7004;48.206;16.402;2023-09-18T03:13:09;14.00;;;12.60;;
13868;SDS011;7004;48.206;16.402;2023-09-18T03:15:38;14.30;;;12.67;;
13868;SDS011;7004;48.206;16.402;2023-09-18T03:18:05;14.50;;;13.00;;
13868;SDS011;7004;48.206;16.402;2023-09-18T03:20:32;14.57;;;13.03;;
13868;SDS011;7004;48.206;16.402;2023-09-18T03:23:00;15.37;;;13.67;;
13868;SDS011;7004;48.206;16.402;2023-09-18T03:25:27;15.07;;;13.47;;
13868;SDS011;7004;48.206;16.402;2023-09-18T03:27:54;15.93;;;14.27;;
13868;SDS011;7004;48.206;16.402;2023-09-18T03:30:23;15.90;;;14.20;;
13868;SDS011;7004;48.206;16.402;2023-09-18T03:32:50;16.30;;;14.43;;
13868;SDS011;7004;48.206;16.402;2023-09-18T03:35:17;16.07;;;14.10;;
13868;SDS011;7004;48.206;16.402;2023-09-18T03:37:45;15.23;;;13.73;;
13868;SDS011;7004;48.206;16.402;2023-09-18T03:40:16;15.40;;;13.13;;
13868;SDS011;7004;48.206;16.402;2023-09-18T03:42:47;15.70;;;13.97;;
13868;SDS011;7004;48.206;16.402;2023-09-18T03:45:14;16.77;;;13.90;;
13868;SDS011;7004;48.206;16.402;2023-09-18T03:47:42;15.50;;;13.87;;
13868;SDS011;7004;48.206;16.402;2023-09-18T03:50:08;16.77;;;14.00;;
13868;SDS011;7004;48.206;16.402;2023-09-18T03:52:36;20.13;;;14.00;;
13868;SDS011;7004;48.206;16.402;2023-09-18T03:55:04;15.60;;;13.70;;
13868;SDS011;7004;48.206;16.402;2023-09-18T03:57:31;16.40;;;14.00;;
13868;SDS011;7004;48.206;16.402;2023-09-18T03:59:58;15.37;;;13.77;;
13868;SDS011;7004;48.206;16.402;2023-09-18T04:02:25;14.40;;;12.90;;
13868;SDS011;7004;48.206;16.402;2023-09-18T04:04:53;15.80;;;13.73;;
13868;SDS011;7004;48.206;16.402;2023-09-18T04:07:20;15.50;;;13.70;;
13868;SDS011;7004;48.206;16.402;2023-09-18T04:09:46;14.63;;;13.13;;
13868;SDS011;7004;48.206;16.402;2023-09-18T04:12:12;15.73;;;14.03;;
13868;SDS011;7004;48.206;16.402;2023-09-18T04:14:39;16.27;;;13.77;;
13868;SDS011;7004;48.206;16.402;2023-09-18T04:17:05;15.63;;;13.83;;
13868;SDS011;7004;48.206;16.402;2023-09-18T04:19:31;16.20;;;14.50;;
13868;SDS011;7004;48.206;16.402;2023-09-18T04:21:57;19.50;;;14.50;;
13868;SDS011;7004;48.206;16.402;2023-09-18T04:24:25;15.93;;;14.23;;
13868;SDS011;7004;48.206;16.402;2023-09-18T04:26:51;17.50;;;14.17;;
13868;SDS011;7004;48.206;16.402;2023-09-18T04:29:18;16.93;;;13.87;;
13868;SDS011;7004;48.206;16.402;2023-09-18T04:31:45;15.70;;;13.53;;
13868;SDS011;7004;48.206;16.402;2023-09-18T04:34:12;18.43;;;14.50;;
13868;SDS011;7004;48.206;16.402;2023-09-18T04:36:38;17.60;;;14.23;;
13868;SDS011;7004;48.206;16.402;2023-09-18T04:39:04;14.93;;;13.37;;
13868;SDS011;7004;48.206;16.402;2023-09-18T04:41:31;16.30;;;14.40;;
13868;SDS011;7004;48.206;16.402;2023-09-18T04:43:59;16.33;;;14.50;;
13868;SDS011;7004;48.206;16.402;2023-09-18T04:46:25;19.10;;;13.93;;
13868;SDS011;7004;48.206;16.402;2023-09-18T04:48:51;16.17;;;14.47;;
13868;SDS011;7004;48.206;16.402;2023-09-18T04:51:17;19.60;;;15.07;;
13868;SDS011;7004;48.206;16.402;2023-09-18T04:53:43;15.67;;;14.07;;
13868;SDS011;7004;48.206;16.402;2023-09-18T04:56:09;18.77;;;14.87;;
13868;SDS011;7004;48.206;16.402;2023-09-18T04:58:36;17.60;;;14.33;;
13868;SDS011;7004;48.206;16.402;2023-09-18T05:01:03;19.03;;;14.70;;
13868;SDS011;7004;48.206;16.402;2023-09-18T05:03:34;16.37;;;14.67;;
13868;SDS011;7004;48.206;16.402;2023-09-18T05:06:01;19.53;;;14.77;;
13868;SDS011;7004;48.206;16.402;2023-09-18T05:08:30;18.27;;;15.40;;
13868;SDS011;7004;48.206;16.402;2023-09-18T05:10:57;15.87;;;14.17;;
13868;SDS011;7004;48.206;16.402;2023-09-18T05:13:23;15.80;;;14.03;;
13868;SDS011;7004;48.206;16.402;2023-09-18T05:15:50;23.73;;;14.60;;
13868;SDS011;7004;48.206;16.402;2023-09-18T05:18:16;20.93;;;15.30;;
13868;SDS011;7004;48.206;16.402;2023-09-18T05:20:42;24.47;;;14.97;;
13868;SDS011;7004;48.206;16.402;2023-09-18T05:23:08;20.27;;;14.73;;
13868;SDS011;7004;48.206;16.402;2023-09-18T05:25:34;21.70;;;15.93;;
13868;SDS011;7004;48.206;16.402;2023-09-18T05:28:03;19.00;;;14.80;;
13868;SDS011;7004;48.206;16.402;2023-09-18T05:30:34;24.60;;;15.63;;
13868;SDS011;7004;48.206;16.402;2023-09-18T05:33:04;18.97;;;16.03;;
13868;SDS011;7004;48.206;16.402;2023-09-18T05:35:32;19.03;;;16.10;;
13868;SDS011;7004;48.206;16.402;2023-09-18T05:38:04;17.00;;;15.03;;
13868;SDS011;7004;48.206;16.402;2023-09-18T05:40:31;18.10;;;15.30;;
13868;SDS011;7004;48.206;16.402;2023-09-18T05:42:58;21.83;;;15.50;;
13868;SDS011;7004;48.206;16.402;2023-09-18T05:45:24;21.63;;;15.40;;
13868;SDS011;7004;48.206;16.402;2023-09-18T05:47:52;22.83;;;16.07;;
13868;SDS011;7004;48.206;16.402;2023-09-18T05:50:18;17.83;;;15.97;;
13868;SDS011;7004;48.206;16.402;2023-09-18T05:52:45;22.00;;;16.07;;
13868;SDS011;7004;48.206;16.402;2023-09-18T05:55:14;20.07;;;17.13;;
13868;SDS011;7004;48.206;16.402;2023-09-18T05:57:41;21.50;;;16.77;;
13868;SDS011;7004;48.206;16.402;2023-09-18T06:00:07;28.07;;;17.33;;
13868;SDS011;7004;48.206;16.402;2023-09-18T06:02:38;23.60;;;16.73;;
13868;SDS011;7004;48.206;16.402;2023-09-18T06:05:05;18.90;;;15.40;;
13868;SDS011;7004;48.206;16.402;2023-09-18T06:07:32;22.10;;;16.10;;
13868;SDS011;7004;48.206;16.402;2023-09-18T06:09:58;17.77;;;15.53;;
13868;SDS011;7004;48.206;16.402;2023-09-18T06:12:27;26.80;;;15.87;;
13868;SDS011;7004;48.206;16.402;2023-09-18T06:14:53;26.83;;;16.37;;
13868;SDS011;7004;48.206;16.402;2023-09-18T06:17:19;22.13;;;16.10;;
13868;SDS011;7004;48.206;16.402;2023-09-18T06:19:45;21.90;;;15.13;;
13868;SDS011;7004;48.206;16.402;2023-09-18T06:22:11;23.17;;;16.53;;
13868;SDS011;7004;48.206;16.402;2023-09-18T06:24:38;18.57;;;16.27;;
13868;SDS011;7004;48.206;16.402;2023-09-18T06:27:05;26.73;;;16.80;;
13868;SDS011;7004;48.206;16.402;2023-09-18T06:29:34;32.20;;;18.07;;
13868;SDS011;7004;48.206;16.402;2023-09-18T06:32:03;24.90;;;16.77;;
13868;SDS011;7004;48.206;16.402;2023-09-18T06:34:29;31.87;;;16.57;;
13868;SDS011;7004;48.206;16.402;2023-09-18T06:36:55;19.87;;;15.17;;
13868;SDS011;7004;48.206;16.402;2023-09-18T06:39:21;18.27;;;14.70;;
13868;SDS011;7004;48.206;16.402;2023-09-18T06:41:49;18.90;;;14.17;;
13868;SDS011;7004;48.206;16.402;2023-09-18T06:44:15;14.83;;;13.23;;
13868;SDS011;7004;48.206;16.402;2023-09-18T06:46:41;22.33;;;14.80;;
13868;SDS011;7004;48.206;16.402;2023-09-18T06:49:07;17.33;;;12.77;;
13868;SDS011;7004;48.206;16.402;2023-09-18T06:51:33;15.40;;;12.93;;
13868;SDS011;7004;48.206;16.402;2023-09-18T06:53:59;34.03;;;15.70;;
13868;SDS011;7004;48.206;16.402;2023-09-18T06:56:27;22.17;;;14.20;;
13868;SDS011;7004;48.206;16.402;2023-09-18T06:58:54;27.03;;;14.70;;
13868;SDS011;7004;48.206;16.402;2023-09-18T07:01:20;17.87;;;12.73;;
13868;SDS011;7004;48.206;16.402;2023-09-18T07:03:49;22.53;;;13.77;;
13868;SDS011;7004;48.206;16.402;2023-09-18T07:06:15;19.50;;;14.27;;
13868;SDS011;7004;48.206;16.402;2023-09-18T07:08:45;16.37;;;12.40;;
13868;SDS011;7004;48.206;16.402;2023-09-18T07:11:12;13.47;;;11.43;;
13868;SDS011;7004;48.206;16.402;2023-09-18T07:13:38;18.83;;;12.57;;
13868;SDS011;7004;48.206;16.402;2023-09-18T07:16:05;20.50;;;12.87;;
13868;SDS011;7004;48.206;16.402;2023-09-18T07:18:31;21.53;;;13.57;;
13868;SDS011;7004;48.206;16.402;2023-09-18T07:20:58;23.47;;;13.50;;
13868;SDS011;7004;48.206;16.402;2023-09-18T07:23:24;19.77;;;11.23;;
13868;SDS011;7004;48.206;16.402;2023-09-18T07:25:50;23.00;;;13.40;;
13868;SDS011;7004;48.206;16.402;2023-09-18T07:28:16;32.00;;;14.50;;
13868;SDS011;7004;48.206;16.402;2023-09-18T07:30:44;15.73;;;9.93;;
13868;SDS011;7004;48.206;16.402;2023-09-18T07:33:12;13.07;;;10.13;;
13868;SDS011;7004;48.206;16.402;2023-09-18T07:35:46;10.17;;;9.00;;
13868;SDS011;7004;48.206;16.402;2023-09-18T07:38:19;12.00;;;8.53;;
13868;SDS011;7004;48.206;16.402;2023-09-18T07:40:45;15.10;;;8.60;;
13868;SDS011;7004;48.206;16.402;2023-09-18T07:43:12;13.00;;;8.10;;
13868;SDS011;7004;48.206;16.402;2023-09-18T07:45:39;10.87;;;7.77;;
13868;SDS011;7004;48.206;16.402;2023-09-18T07:48:08;9.17;;;8.07;;
13868;SDS011;7004;48.206;16.402;2023-09-18T07:50:35;9.87;;;7.30;;
13868;SDS011;7004;48.206;16.402;2023-09-18T07:53:02;37.23;;;14.77;;
13868;SDS011;7004;48.206;16.402;2023-09-18T07:55:28;12.77;;;8.43;;
13868;SDS011;7004;48.206;16.402;2023-09-18T07:57:55;14.73;;;7.80;;
13868;SDS011;7004;48.206;16.402;2023-09-18T08:00:21;12.20;;;8.27;;
13868;SDS011;7004;48.206;16.402;2023-09-18T08:02:48;12.27;;;8.30;;
13868;SDS011;7004;48.206;16.402;2023-09-18T08:05:16;12.97;;;7.40;;
13868;SDS011;7004;48.206;16.402;2023-09-18T08:07:42;13.57;;;8.37;;
13868;SDS011;7004;48.206;16.402;2023-09-18T08:10:09;14.73;;;7.50;;
13868;SDS011;7004;48.206;16.402;2023-09-18T08:12:35;15.97;;;9.63;;
13868;SDS011;7004;48.206;16.402;2023-09-18T08:15:02;9.57;;;7.50;;
13868;SDS011;7004;48.206;16.402;2023-09-18T08:17:31;21.57;;;9.90;;
13868;SDS011;7004;48.206;16.402;2023-09-18T08:19:57;45.13;;;16.37;;
13868;SDS011;7004;48.206;16.402;2023-09-18T08:22:23;57.73;;;21.47;;
13868;SDS011;7004;48.206;16.402;2023-09-18T08:24:50;12.57;;;7.00;;
13868;SDS011;7004;48.206;16.402;2023-09-18T08:27:18;7.33;;;6.50;;
13868;SDS011;7004;48.206;16.402;2023-09-18T08:29:44;16.87;;;9.53;;
13868;SDS011;7004;48.206;16.402;2023-09-18T08:32:12;13.10;;;7.87;;
13868;SDS011;7004;48.206;16.402;2023-09-18T08:34:38;10.03;;;8.17;;
13868;SDS011;7004;48.206;16.402;2023-09-18T08:37:04;11.67;;;7.33;;
13868;SDS011;7004;48.206;16.402;2023-09-18T08:39:30;8.37;;;6.97;;
13868;SDS011;7004;48.206;16.402;2023-09-18T08:42:01;17.93;;;9.10;;
13868;SDS011;7004;48.206;16.402;2023-09-18T08:44:30;12.27;;;7.10;;
13868;SDS011;7004;48.206;16.402;2023-09-18T08:46:56;8.33;;;6.97;;
13868;SDS011;7004;48.206;16.402;2023-09-18T08:49:23;11.20;;;6.73;;
13868;SDS011;7004;48.206;16.402;2023-09-18T08:51:50;7.43;;;6.40;;
13868;SDS011;7004;48.206;16.402;2023-09-18T08:54:19;13.23;;;7.03;;
13868;SDS011;7004;48.206;16.402;2023-09-18T08:56:46;10.17;;;6.90;;
13868;SDS011;7004;48.206;16.402;2023-09-18T08:59:13;13.93;;;8.07;;
13868;SDS011;7004;48.206;16.402;2023-09-18T09:01:40;10.87;;;6.60;;
13868;SDS011;7004;48.206;16.402;2023-09-18T09:04:06;7.23;;;6.40;;
13868;SDS011;7004;48.206;16.402;2023-09-18T09:06:32;35.13;;;13.07;;
13868;SDS011;7004;48.206;16.402;2023-09-18T09:08:58;29.53;;;11.07;;
13868;SDS011;7004;48.206;16.402;2023-09-18T09:11:24;20.97;;;9.70;;
13868;SDS011;7004;48.206;16.402;2023-09-18T09:14:10;17.53;;;7.17;;
13868;SDS011;7004;48.206;16.402;2023-09-18T09:16:49;14.87;;;7.27;;
13868;SDS011;7004;48.206;16.402;2023-09-18T09:19:16;7.97;;;6.60;;
13868;SDS011;7004;48.206;16.402;2023-09-18T09:21:44;10.47;;;6.27;;
13868;SDS011;7004;48.206;16.402;2023-09-18T09:24:11;13.77;;;7.80;;
13868;SDS011;7004;48.206;16.402;2023-09-18T09:26:41;11.30;;;6.50;;
13868;SDS011;7004;48.206;16.402;2023-09-18T09:29:14;10.27;;;6.63;;
13868;SDS011;7004;48.206;16.402;2023-09-18T09:31:45;10.17;;;6.50;;
13868;SDS011;7004;48.206;16.402;2023-09-18T09:34:12;7.67;;;6.30;;
13868;SDS011;7004;48.206;16.402;2023-09-18T09:36:53;19.97;;;8.37;;
13868;SDS011;7004;48.206;16.402;2023-09-18T09:39:20;8.83;;;5.90;;
13868;SDS011;7004;48.206;16.402;2023-09-18T09:41:50;10.20;;;6.03;;
13868;SDS011;7004;48.206;16.402;2023-09-18T09:44:18;8.53;;;6.20;;
13868;SDS011;7004;48.206;16.402;2023-09-18T09:46:50;9.13;;;6.30;;
13868;SDS011;7004;48.206;16.402;2023-09-18T09:49:16;10.83;;;6.47;;
13868;SDS011;7004;48.206;16.402;2023-09-18T09:51:45;7.10;;;6.40;;
13868;SDS011;7004;48.206;16.402;2023-09-18T09:54:12;10.17;;;6.40;;
13868;SDS011;7004;48.206;16.402;2023-09-18T09:56:43;8.27;;;6.37;;
13868;SDS011;7004;48.206;16.402;2023-09-18T09:59:16;6.77;;;6.03;;
13868;SDS011;7004;48.206;16.402;2023-09-18T10:01:46;7.10;;;6.20;;
13868;SDS011;7004;48.206;16.402;2023-09-18T10:04:16;7.57;;;6.70;;
13868;SDS011;7004;48.206;16.402;2023-09-18T10:06:51;7.57;;;5.70;;
13868;SDS011;7004;48.206;16.402;2023-09-18T10:09:39;10.10;;;6.30;;
13868;SDS011;7004;48.206;16.402;2023-09-18T10:12:11;9.10;;;6.33;;
13868;SDS011;7004;48.206;16.402;2023-09-18T10:14:41;10.17;;;6.40;;
13868;SDS011;7004;48.206;16.402;2023-09-18T10:17:18;7.43;;;5.90;;
13868;SDS011;7004;48.206;16.402;2023-09-18T10:19:45;8.63;;;6.10;;
13868;SDS011;7004;48.206;16.402;2023-09-18T10:22:44;10.20;;;5.83;;
13868;SDS011;7004;48.206;16.402;2023-09-18T10:25:23;7.17;;;6.13;;
13868;SDS011;7004;48.206;16.402;2023-09-18T10:27:53;6.03;;;5.43;;
13868;SDS011;7004;48.206;16.402;2023-09-18T10:30:23;7.47;;;5.77;;
13868;SDS011;7004;48.206;16.402;2023-09-18T10:32:52;9.03;;;5.93;;
13868;SDS011;7004;48.206;16.402;2023-09-18T10:35:18;9.60;;;5.67;;
13868;SDS011;7004;48.206;16.402;2023-09-18T10:37:46;9.57;;;5.97;;
13868;SDS011;7004;48.206;16.402;2023-09-18T10:40:16;6.67;;;5.67;;
13868;SDS011;7004;48.206;16.402;2023-09-18T10:42:43;11.60;;;5.97;;
13868;SDS011;7004;48.206;16.402;2023-09-18T10:45:15;7.30;;;5.87;;
13868;SDS011;7004;48.206;16.402;2023-09-18T10:47:42;9.30;;;5.90;;
13868;SDS011;7004;48.206;16.402;2023-09-18T10:50:11;15.03;;;6.50;;
13868;SDS011;7004;48.206;16.402;2023-09-18T10:52:47;8.97;;;5.60;;
13868;SDS011;7004;48.206;16.402;2023-09-18T10:55:13;8.57;;;5.93;;
13868;SDS011;7004;48.206;16.402;2023-09-18T10:57:50;12.73;;;6.20;;
13868;SDS011;7004;48.206;16.402;2023-09-18T11:00:17;6.60;;;5.43;;
13868;SDS011;7004;48.206;16.402;2023-09-18T11:02:49;8.97;;;5.60;;
13868;SDS011;7004;48.206;16.402;2023-09-18T11:05:28;6.73;;;5.20;;
13868;SDS011;7004;48.206;16.402;2023-09-18T11:13:45;10.27;;;6.07;;
13868;SDS011;7004;48.206;16.402;2023-09-18T11:18:40;9.50;;;7.50;;
13868;SDS011;7004;48.206;16.402;2023-09-18T11:21:10;11.67;;;7.40;;
13868;SDS011;7004;48.206;16.402;2023-09-18T11:23:38;7.17;;;6.30;;
13868;SDS011;7004;48.206;16.402;2023-09-18T11:26:11;9.07;;;6.10;;
13868;SDS011;7004;48.206;16.402;2023-09-18T11:28:37;11.20;;;6.13;;
13868;SDS011;7004;48.206;16.402;2023-09-18T11:31:04;6.70;;;6.10;;
13868;SDS011;7004;48.206;16.402;2023-09-18T11:33:31;7.40;;;6.03;;
13868;SDS011;7004;48.206;16.402;2023-09-18T11:36:02;17.13;;;7.87;;
13868;SDS011;7004;48.206;16.402;2023-09-18T11:38:32;8.33;;;6.20;;
13868;SDS011;7004;48.206;16.402;2023-09-18T11:41:14;14.30;;;7.33;;
13868;SDS011;7004;48.206;16.402;2023-09-18T11:43:54;18.50;;;8.67;;
13868;SDS011;7004;48.206;16.402;2023-09-18T11:46:49;11.97;;;6.80;;
13868;SDS011;7004;48.206;16.402;2023-09-18T11:49:22;11.43;;;6.60;;
13868;SDS011;7004;48.206;16.402;2023-09-18T11:51:52;9.37;;;6.30;;
13868;SDS011;7004;48.206;16.402;2023-09-18T11:54:19;7.83;;;6.03;;
13868;SDS011;7004;48.206;16.402;2023-09-18T11:56:49;7.60;;;6.20;;
13868;SDS011;7004;48.206;16.402;2023-09-18T11:59:15;16.93;;;7.93;;
13868;SDS011;7004;48.206;16.402;2023-09-18T12:01:51;11.13;;;6.13;;
13868;SDS011;7004;48.206;16.402;2023-09-18T12:04:27;10.33;;;6.23;;
13868;SDS011;7004;48.206;16.402;2023-09-18T12:06:54;12.00;;;6.13;;
13868;SDS011;7004;48.206;16.402;2023-09-18T12:09:20;10.30;;;6.00;;
13868;SDS011;7004;48.206;16.402;2023-09-18T12:11:46;12.70;;;7.47;;
13868;SDS011;7004;48.206;16.402;2023-09-18T12:14:15;7.97;;;5.80;;
13868;SDS011;7004;48.206;16.402;2023-09-18T12:16:45;8.27;;;6.50;;
13868;SDS011;7004;48.206;16.402;2023-09-18T12:19:18;15.10;;;7.63;;
13868;SDS011;7004;48.206;16.402;2023-09-18T12:21:47;10.27;;;6.47;;
13868;SDS011;7004;48.206;16.402;2023-09-18T12:24:22;9.03;;;6.20;;
13868;SDS011;7004;48.206;16.402;2023-09-18T12:26:51;10.87;;;6.50;;
13868;SDS011;7004;48.206;16.402;2023-09-18T12:29:21;9.37;;;6.70;;
13868;SDS011;7004;48.206;16.402;2023-09-18T12:31:48;12.40;;;6.50;;
13868;SDS011;7004;48.206;16.402;2023-09-18T12:34:17;13.57;;;7.50;;
13868;SDS011;7004;48.206;16.402;2023-09-18T12:36:46;23.87;;;8.60;;
13868;SDS011;7004;48.206;16.402;2023-09-18T12:39:13;10.00;;;5.90;;
13868;SDS011;7004;48.206;16.402;2023-09-18T12:41:44;8.33;;;6.23;;
13868;SDS011;7004;48.206;16.402;2023-09-18T12:44:12;19.70;;;8.50;;
13868;SDS011;7004;48.206;16.402;2023-09-18T12:46:41;11.13;;;6.63;;
13868;SDS011;7004;48.206;16.402;2023-09-18T12:51:42;7.20;;;6.13;;
13868;SDS011;7004;48.206;16.402;2023-09-18T12:54:10;12.00;;;6.57;;
13868;SDS011;7004;48.206;16.402;2023-09-18T12:56:41;12.17;;;6.97;;
13868;SDS011;7004;48.206;16.402;2023-09-18T12:59:08;9.13;;;6.37;;
13868;SDS011;7004;48.206;16.402;2023-09-18T13:01:34;12.83;;;7.37;;
13868;SDS011;7004;48.206;16.402;2023-09-18T13:04:03;11.27;;;6.83;;
13868;SDS011;7004;48.206;16.402;2023-09-18T13:06:31;11.37;;;7.23;;
13868;SDS011;7004;48.206;16.402;2023-09-18T13:09:14;10.20;;;6.20;;
13868;SDS011;7004;48.206;16.402;2023-09-18T13:11:51;8.70;;;5.70;;
13868;SDS011;7004;48.206;16.402;2023-09-18T13:14:27;10.30;;;6.30;;
13868;SDS011;7004;48.206;16.402;2023-09-18T13:16:59;11.13;;;6.83;;
13868;SDS011;7004;48.206;16.402;2023-09-18T13:19:29;13.23;;;6.47;;
13868;SDS011;7004;48.206;16.402;2023-09-18T13:21:56;10.73;;;6.47;;
13868;SDS011;7004;48.206;16.402;2023-09-18T13:24:29;15.50;;;6.70;;
13868;SDS011;7004;48.206;16.402;2023-09-18T13:26:56;11.70;;;7.23;;
13868;SDS011;7004;48.206;16.402;2023-09-18T13:29:24;15.80;;;8.13;;
13868;SDS011;7004;48.206;16.402;2023-09-18T13:31:50;11.60;;;7.07;;
13868;SDS011;7004;48.206;16.402;2023-09-18T13:34:17;14.37;;;7.43;;
13868;SDS011;7004;48.206;16.402;2023-09-18T13:36:44;13.70;;;6.43;;
13868;SDS011;7004;48.206;16.402;2023-09-18T13:39:12;19.07;;;9.10;;
13868;SDS011;7004;48.206;16.402;2023-09-18T13:41:40;12.27;;;7.10;;
13868;SDS011;7004;48.206;16.402;2023-09-18T13:44:06;11.40;;;6.53;;
13868;SDS011;7004;48.206;16.402;2023-09-18T13:46:32;12.20;;;6.57;;
13868;SDS011;7004;48.206;16.402;2023-09-18T13:49:02;16.67;;;6.37;;
13868;SDS011;7004;48.206;16.402;2023-09-18T13:51:30;13.20;;;6.57;;
13868;SDS011;7004;48.206;16.402;2023-09-18T13:53:57;18.80;;;7.93;;
13868;SDS011;7004;48.206;16.402;2023-09-18T13:56:24;16.33;;;6.83;;
13868;SDS011;7004;48.206;16.402;2023-09-18T13:58:54;17.10;;;7.10;;
13868;SDS011;7004;48.206;16.402;2023-09-18T14:01:22;12.53;;;6.57;;
13868;SDS011;7004;48.206;16.402;2023-09-18T14:03:51;16.10;;;7.03;;
13868;SDS011;7004;48.206;16.402;2023-09-18T14:06:17;15.47;;;6.73;;
13868;SDS011;7004;48.206;16.402;2023-09-18T14:08:43;16.13;;;6.97;;
13868;SDS011;7004;48.206;16.402;2023-09-18T14:11:09;16.77;;;6.57;;
13868;SDS011;7004;48.206;16.402;2023-09-18T14:13:35;16.10;;;6.97;;
13868;SDS011;7004;48.206;16.402;2023-09-18T14:16:01;17.87;;;6.53;;
13868;SDS011;7004;48.206;16.402;2023-09-18T14:18:29;17.57;;;6.87;;
13868;SDS011;7004;48.206;16.402;2023-09-18T14:20:55;13.73;;;6.70;;
13868;SDS011;7004;48.206;16.402;2023-09-18T14:23:21;12.83;;;6.90;;
13868;SDS011;7004;48.206;16.402;2023-09-18T14:25:47;12.30;;;6.87;;
13868;SDS011;7004;48.206;16.402;2023-09-18T14:28:15;9.07;;;6.73;;
13868;SDS011;7004;48.206;16.402;2023-09-18T14:30:41;12.53;;;6.73;;
13868;SDS011;7004;48.206;16.402;2023-09-18T14:33:07;13.47;;;6.57;;
13868;SDS011;7004;48.206;16.402;2023-09-18T14:35:34;11.63;;;6.50;;
13868;SDS011;7004;48.206;16.402;2023-09-18T14:38:01;10.47;;;7.53;;
13868;SDS011;7004;48.206;16.402;2023-09-18T14:40:32;10.43;;;6.80;;
13868;SDS011;7004;48.206;16.402;2023-09-18T14:42:58;10.63;;;6.83;;
13868;SDS011;7004;48.206;16.402;2023-09-18T14:45:24;10.87;;;6.80;;
13868;SDS011;7004;48.206;16.402;2023-09-18T14:47:51;12.63;;;6.73;;
13868;SDS011;7004;48.206;16.402;2023-09-18T14:50:17;16.80;;;7.10;;